X  Schließen METAR Luftfahrt Wetterdaten     EHKD De Kooy Airport
Temperatur
6°C Temperatur
2°C Taupunkt
76% Feuchtigkeit



Wind
25 MPS
40 KM/S
11 M/S
22 KTS



240°
WSW
Aktuelle Wetterlage

Teilweise bewölkt Teilweise bewölkt
Luftdruck 984.08 (hPa) - 29.06 (inHg)
Sichtweite 6 (Meile) - 9.7 (Km)
Flughafen
Flughafen Code EHKD

Position : De Kooy Airport
Entfernung: 34 (mi)

Metar:
EHKD 230300Z AUTO 24022G33KT 210V270 9999 FEW023 SCT041 06/02 Q0984 BLU

Zeit: 23-02-2024 04:00 CET